createdAt,value
2024-03-02T00:01:17.514Z,8.18
2024-03-02T00:03:45.197Z,8.19
2024-03-02T00:06:11.969Z,8.15
2024-03-02T00:08:39.191Z,8.09
2024-03-02T00:11:06.059Z,7.68
2024-03-02T00:13:33.576Z,7.89
2024-03-02T00:16:00.760Z,8.26
2024-03-02T00:18:37.316Z,8.15
2024-03-02T00:21:04.813Z,8.12
2024-03-02T00:23:32.914Z,8.14
2024-03-02T00:26:01.490Z,8.13
2024-03-02T00:28:38.698Z,8.11
2024-03-02T00:31:13.528Z,8.08
2024-03-02T00:33:48.518Z,8.02
2024-03-02T00:36:16.967Z,7.51
2024-03-02T00:38:55.346Z,8.08
2024-03-02T00:41:25.677Z,8.17
2024-03-02T00:44:10.581Z,7.79
2024-03-02T00:46:38.831Z,7.99
2024-03-02T00:49:13.011Z,8.04
2024-03-02T00:51:40.946Z,8.00
2024-03-02T00:54:10.521Z,7.55
2024-03-02T00:56:37.470Z,7.66
2024-03-02T00:59:04.308Z,7.81
2024-03-02T01:01:31.104Z,7.23
2024-03-02T01:03:57.982Z,7.73
2024-03-02T01:06:24.887Z,7.64
2024-03-02T01:08:53.398Z,7.56
2024-03-02T01:11:24.128Z,7.74
2024-03-02T01:13:52.036Z,7.85
2024-03-02T01:16:18.968Z,7.77
2024-03-02T01:18:46.065Z,7.87
2024-03-02T01:21:13.087Z,7.86
2024-03-02T01:23:40.047Z,7.60
2024-03-02T01:26:06.978Z,7.30
2024-03-02T01:28:33.830Z,7.68
2024-03-02T01:31:00.677Z,7.97
2024-03-02T01:33:27.447Z,8.09
2024-03-02T01:35:54.231Z,7.61
2024-03-02T01:38:21.532Z,7.59
2024-03-02T01:40:48.424Z,8.13
2024-03-02T01:43:15.161Z,8.10
2024-03-02T01:45:42.095Z,8.12
2024-03-02T01:48:09.283Z,8.15
2024-03-02T01:50:36.545Z,7.99
2024-03-02T01:53:04.360Z,8.12
2024-03-02T01:55:31.986Z,7.97
2024-03-02T01:58:00.097Z,8.22
2024-03-02T02:00:28.328Z,8.22
2024-03-02T02:02:56.129Z,8.19
2024-03-02T02:05:23.503Z,8.27
2024-03-02T02:07:50.587Z,8.25
2024-03-02T02:10:17.584Z,7.77
2024-03-02T02:12:44.533Z,8.01
2024-03-02T02:15:32.110Z,8.13
2024-03-02T02:18:00.280Z,8.13
2024-03-02T02:20:27.363Z,8.07
2024-03-02T02:23:04.689Z,8.03
2024-03-02T02:25:31.492Z,8.06
2024-03-02T02:27:59.811Z,8.02
2024-03-02T02:30:29.509Z,8.09
2024-03-02T02:32:56.821Z,8.17
2024-03-02T02:35:25.367Z,7.67
2024-03-02T02:37:54.504Z,8.09
2024-03-02T02:40:21.317Z,7.89
2024-03-02T02:42:48.655Z,8.01
2024-03-02T02:45:16.206Z,7.77
2024-03-02T02:47:43.821Z,7.42
2024-03-02T02:50:12.188Z,7.95
2024-03-02T02:52:41.343Z,7.63
2024-03-02T02:55:10.282Z,7.95
2024-03-02T02:57:39.098Z,7.69
2024-03-02T03:00:15.223Z,7.99
2024-03-02T03:02:43.879Z,7.97
2024-03-02T03:05:11.954Z,7.68
2024-03-02T03:07:40.707Z,7.79
2024-03-02T03:10:08.748Z,7.79
2024-03-02T03:12:36.772Z,7.86
2024-03-02T03:15:05.950Z,6.81
2024-03-02T03:17:33.118Z,6.14
2024-03-02T03:20:00.056Z,6.46
2024-03-02T03:22:26.937Z,6.58
2024-03-02T03:24:54.322Z,6.57
2024-03-02T03:27:21.149Z,6.67
2024-03-02T03:29:48.049Z,6.32
2024-03-02T03:32:15.200Z,6.50
2024-03-02T03:34:42.404Z,6.42
2024-03-02T03:37:09.278Z,6.14
2024-03-02T03:39:37.459Z,6.24
2024-03-02T03:42:04.755Z,5.69
2024-03-02T03:44:31.542Z,6.42
2024-03-02T03:46:58.227Z,6.79
2024-03-02T03:49:24.992Z,7.10
2024-03-02T03:51:51.850Z,7.20
2024-03-02T03:54:18.704Z,7.24
2024-03-02T03:56:45.483Z,7.50
2024-03-02T03:59:12.240Z,7.49
2024-03-02T04:01:39.086Z,7.48
2024-03-02T04:04:05.907Z,7.74
2024-03-02T04:06:33.233Z,7.89
2024-03-02T04:09:00.069Z,7.23
2024-03-02T04:11:26.885Z,8.08
2024-03-02T04:13:56.006Z,8.10
2024-03-02T04:16:24.252Z,8.16
2024-03-02T04:18:50.934Z,8.12
2024-03-02T04:21:17.761Z,8.18
2024-03-02T04:23:44.633Z,8.11
2024-03-02T04:26:11.505Z,8.24
2024-03-02T04:28:38.254Z,8.17
2024-03-02T04:31:05.114Z,8.14
2024-03-02T04:33:31.946Z,8.12
2024-03-02T04:35:58.914Z,8.19
2024-03-02T04:38:25.660Z,8.23
2024-03-02T04:40:52.391Z,8.18
2024-03-02T04:43:20.409Z,7.98
2024-03-02T04:45:47.453Z,8.03
2024-03-02T04:48:15.269Z,8.00
2024-03-02T04:50:42.193Z,8.12
2024-03-02T04:53:09.160Z,7.91
2024-03-02T04:55:36.001Z,8.06
2024-03-02T04:58:02.824Z,8.08
2024-03-02T05:00:29.670Z,7.97
2024-03-02T05:02:56.466Z,7.74
2024-03-02T05:05:23.378Z,7.55
2024-03-02T05:07:50.085Z,7.46
2024-03-02T05:10:16.821Z,7.76
2024-03-02T05:12:43.689Z,7.49
2024-03-02T05:15:12.215Z,7.79
2024-03-02T05:17:39.732Z,7.78
2024-03-02T05:20:10.126Z,7.90
2024-03-02T05:22:38.199Z,7.59
2024-03-02T05:25:06.144Z,7.91
2024-03-02T05:27:35.703Z,7.98
2024-03-02T05:30:02.985Z,8.11
2024-03-02T05:32:29.826Z,8.18
2024-03-02T05:34:56.525Z,7.49
2024-03-02T05:37:23.327Z,7.47
2024-03-02T05:39:50.583Z,7.26
2024-03-02T05:42:20.406Z,7.27
2024-03-02T05:44:47.213Z,7.85
2024-03-02T05:47:14.114Z,7.17
2024-03-02T05:49:40.968Z,7.08
2024-03-02T05:52:08.192Z,6.10
2024-03-02T05:54:35.026Z,7.00
2024-03-02T05:57:18.521Z,6.73
2024-03-02T05:59:45.443Z,6.94
2024-03-02T06:02:12.193Z,6.86
2024-03-02T06:04:38.886Z,7.33
2024-03-02T06:07:05.640Z,7.24
2024-03-02T06:09:32.371Z,7.37
2024-03-02T06:11:59.066Z,7.84
2024-03-02T06:14:25.742Z,7.51
2024-03-02T06:16:52.434Z,7.77
2024-03-02T06:19:19.154Z,7.94
2024-03-02T06:21:45.974Z,7.83
2024-03-02T06:24:12.781Z,7.67
2024-03-02T06:26:40.755Z,8.05
2024-03-02T06:29:07.590Z,7.92
2024-03-02T06:31:34.334Z,8.06
2024-03-02T06:34:01.125Z,7.62
2024-03-02T06:36:27.909Z,7.76
2024-03-02T06:38:54.672Z,8.02
2024-03-02T06:41:21.444Z,8.09
2024-03-02T06:43:48.168Z,8.07
2024-03-02T06:46:16.306Z,8.14
2024-03-02T06:48:43.046Z,8.17
2024-03-02T06:51:09.816Z,8.18
2024-03-02T06:53:36.460Z,8.35
2024-03-02T06:56:03.340Z,8.44
2024-03-02T06:58:30.129Z,8.31
2024-03-02T07:00:56.949Z,8.29
2024-03-02T07:03:23.790Z,8.36
2024-03-02T07:05:51.846Z,8.67
2024-03-02T07:08:18.784Z,8.30
2024-03-02T07:10:45.513Z,8.63
2024-03-02T07:13:12.187Z,8.77
2024-03-02T07:16:01.171Z,8.93
2024-03-02T07:18:28.267Z,8.85
2024-03-02T07:20:56.726Z,8.07
2024-03-02T07:23:26.291Z,9.00
2024-03-02T07:28:22.938Z,9.15
2024-03-02T07:31:00.308Z,9.06
2024-03-02T07:33:27.355Z,9.53
2024-03-02T07:35:56.269Z,9.62
2024-03-02T07:38:23.845Z,9.68
2024-03-02T07:40:56.957Z,9.25
2024-03-02T07:43:23.692Z,9.12
2024-03-02T07:45:50.423Z,9.01
2024-03-02T07:48:17.222Z,8.78
2024-03-02T07:50:44.352Z,8.30
2024-03-02T07:53:11.127Z,9.15
2024-03-02T07:55:37.910Z,8.99
2024-03-02T07:58:04.849Z,7.99
2024-03-02T08:00:31.726Z,8.78
2024-03-02T08:02:58.724Z,9.02
2024-03-02T08:05:25.519Z,8.34
2024-03-02T08:07:55.278Z,8.89
2024-03-02T08:10:22.107Z,9.11
2024-03-02T08:12:48.946Z,9.28
2024-03-02T08:15:15.858Z,9.23
2024-03-02T08:17:49.866Z,9.47
2024-03-02T08:20:17.179Z,9.66
2024-03-02T08:22:44.044Z,9.57
2024-03-02T08:25:11.242Z,9.78
2024-03-02T08:27:39.991Z,9.76
2024-03-02T08:30:08.372Z,10.16
2024-03-02T08:32:35.761Z,10.08
2024-03-02T08:35:02.810Z,10.16
2024-03-02T08:37:29.654Z,10.31
2024-03-02T08:39:56.602Z,10.51
2024-03-02T08:42:24.073Z,10.93
2024-03-02T08:44:51.113Z,10.98
2024-03-02T08:47:18.045Z,9.63
2024-03-02T08:49:44.756Z,9.52
2024-03-02T08:52:11.492Z,8.96
2024-03-02T08:54:39.289Z,9.75
2024-03-02T08:57:07.164Z,10.01
2024-03-02T08:59:34.463Z,9.66
2024-03-02T09:02:01.362Z,9.17
2024-03-02T09:04:30.826Z,9.37
2024-03-02T09:06:59.409Z,9.71
2024-03-02T09:09:26.220Z,10.08
2024-03-02T09:11:53.246Z,8.80
2024-03-02T09:14:20.640Z,9.64
2024-03-02T09:16:47.478Z,9.54
2024-03-02T09:19:14.276Z,9.65
2024-03-02T09:21:41.133Z,10.10
2024-03-02T09:24:08.101Z,10.16
2024-03-02T09:26:34.978Z,8.46
2024-03-02T09:29:01.695Z,9.74
2024-03-02T09:31:28.401Z,10.20
2024-03-02T09:33:55.319Z,9.70
2024-03-02T09:36:23.686Z,10.92
2024-03-02T09:38:50.618Z,11.41
2024-03-02T09:41:17.672Z,11.63
2024-03-02T09:43:44.921Z,11.81
2024-03-02T09:46:12.436Z,10.83
2024-03-02T09:48:40.069Z,10.40
2024-03-02T09:51:06.905Z,10.65
2024-03-02T09:53:35.521Z,11.42
2024-03-02T09:56:02.674Z,11.41
2024-03-02T09:58:30.143Z,11.56
2024-03-02T10:00:57.038Z,11.72
2024-03-02T10:03:30.224Z,12.49
2024-03-02T10:05:57.007Z,11.21
2024-03-02T10:08:23.678Z,11.03
2024-03-02T10:10:50.448Z,11.58
2024-03-02T10:13:19.114Z,12.17
2024-03-02T10:15:45.974Z,12.47
2024-03-02T10:18:13.946Z,12.97
2024-03-02T10:20:41.990Z,12.61
2024-03-02T10:23:17.332Z,12.82
2024-03-02T10:25:51.982Z,13.30
2024-03-02T10:28:24.779Z,11.20
2024-03-02T10:30:54.188Z,13.33
2024-03-02T10:33:21.347Z,13.07
2024-03-02T10:35:51.162Z,13.52
2024-03-02T10:38:18.974Z,13.33
2024-03-02T10:40:49.746Z,12.98
2024-03-02T10:43:17.020Z,13.15
2024-03-02T10:45:44.699Z,11.69
2024-03-02T10:48:11.481Z,11.89
2024-03-02T10:50:38.212Z,12.26
2024-03-02T10:53:07.038Z,11.99
2024-03-02T10:55:34.546Z,12.25
2024-03-02T10:58:06.251Z,11.54
2024-03-02T11:00:39.289Z,10.98
2024-03-02T11:03:07.804Z,10.58
2024-03-02T11:05:39.631Z,10.90
2024-03-02T11:08:12.944Z,11.07
2024-03-02T11:10:49.554Z,10.32
2024-03-02T11:13:16.972Z,11.05
2024-03-02T11:15:46.057Z,10.15
2024-03-02T11:18:13.894Z,10.72
2024-03-02T11:20:42.278Z,10.48
2024-03-02T11:23:10.535Z,11.09
2024-03-02T11:25:37.831Z,10.72
2024-03-02T11:28:10.785Z,11.05
2024-03-02T11:30:39.204Z,11.53
2024-03-02T11:33:10.673Z,12.19
2024-03-02T11:35:49.816Z,11.58
2024-03-02T11:38:16.861Z,12.26
2024-03-02T11:40:44.284Z,13.02
2024-03-02T11:43:12.435Z,12.92
2024-03-02T11:45:44.418Z,13.83
2024-03-02T11:48:16.082Z,14.20
2024-03-02T11:50:42.923Z,14.10
2024-03-02T11:53:15.122Z,13.83
2024-03-02T11:55:42.166Z,13.95
2024-03-02T11:58:09.602Z,14.31
2024-03-02T12:00:36.853Z,14.63
2024-03-02T12:03:07.733Z,14.62
2024-03-02T12:05:34.922Z,15.07
2024-03-02T12:08:07.432Z,14.45
2024-03-02T12:10:35.758Z,13.85
2024-03-02T12:13:04.657Z,13.84
2024-03-02T12:15:33.490Z,14.16
2024-03-02T12:18:02.841Z,14.26
2024-03-02T12:20:31.253Z,14.62
2024-03-02T12:23:03.655Z,14.68
2024-03-02T12:25:32.914Z,14.62
2024-03-02T12:28:02.178Z,14.15
2024-03-02T12:30:32.495Z,13.75
2024-03-02T12:32:59.778Z,14.17
2024-03-02T12:35:26.828Z,14.17
2024-03-02T12:37:55.447Z,14.53
2024-03-02T12:40:24.270Z,14.82
2024-03-02T12:42:52.081Z,15.10
2024-03-02T12:45:25.948Z,15.29
2024-03-02T12:47:54.163Z,14.93
2024-03-02T12:50:22.180Z,15.62
2024-03-02T12:52:56.180Z,15.31
2024-03-02T12:55:24.446Z,15.70
2024-03-02T12:57:55.512Z,15.40
2024-03-02T13:00:23.936Z,15.82
2024-03-02T13:02:52.708Z,15.92
2024-03-02T13:05:20.871Z,15.54
2024-03-02T13:07:51.659Z,15.56
2024-03-02T13:10:19.529Z,15.45
2024-03-02T13:12:47.090Z,15.50
2024-03-02T13:15:17.527Z,16.12
2024-03-02T13:17:47.089Z,16.32
2024-03-02T13:20:15.821Z,16.49
2024-03-02T13:22:43.056Z,16.82
2024-03-02T13:25:11.623Z,16.84
2024-03-02T13:27:38.641Z,16.67
2024-03-02T13:30:07.082Z,16.94
2024-03-02T13:32:34.139Z,17.06
2024-03-02T13:35:01.504Z,17.25
2024-03-02T13:37:28.302Z,16.36
2024-03-02T13:39:55.253Z,16.80
2024-03-02T13:42:22.252Z,16.10
2024-03-02T13:44:51.112Z,16.02
2024-03-02T13:47:18.318Z,15.91
2024-03-02T13:49:47.136Z,14.12
2024-03-02T13:52:18.466Z,16.12
2024-03-02T13:54:47.121Z,16.05
2024-03-02T13:57:14.155Z,15.97
2024-03-02T13:59:42.167Z,15.92
2024-03-02T14:02:10.277Z,15.99
2024-03-02T14:04:37.846Z,15.58
2024-03-02T14:07:05.172Z,16.11
2024-03-02T14:09:32.169Z,16.18
2024-03-02T14:11:59.036Z,16.60
2024-03-02T14:14:25.900Z,16.44
2024-03-02T14:16:53.382Z,16.35
2024-03-02T14:19:20.282Z,16.30
2024-03-02T14:21:48.485Z,16.21
2024-03-02T14:24:15.527Z,15.81
2024-03-02T14:26:42.435Z,15.94
2024-03-02T14:29:09.510Z,15.84
2024-03-02T14:31:36.341Z,15.49
2024-03-02T14:34:03.354Z,15.17
2024-03-02T14:36:30.362Z,15.27
2024-03-02T14:38:58.510Z,14.22
2024-03-02T14:41:25.878Z,13.99
2024-03-02T14:43:53.073Z,14.51
2024-03-02T14:46:20.749Z,14.63
2024-03-02T14:48:48.011Z,14.67
2024-03-02T14:51:15.374Z,13.79
2024-03-02T14:53:42.835Z,14.06
2024-03-02T14:56:09.972Z,14.05
2024-03-02T14:58:38.039Z,13.51
2024-03-02T15:01:06.218Z,13.25
2024-03-02T15:03:33.653Z,12.63
2024-03-02T15:06:00.588Z,11.93
2024-03-02T15:08:27.422Z,11.87
2024-03-02T15:10:57.086Z,12.23
2024-03-02T15:13:24.668Z,12.03
2024-03-02T15:15:51.979Z,12.08
2024-03-02T15:18:19.188Z,12.48
2024-03-02T15:20:45.945Z,12.39
2024-03-02T15:23:12.709Z,12.18
2024-03-02T15:25:39.469Z,12.21
2024-03-02T15:28:06.448Z,11.93
2024-03-02T15:30:33.613Z,11.74
2024-03-02T15:33:00.899Z,12.00
2024-03-02T15:35:27.960Z,12.16
2024-03-02T15:37:54.758Z,12.43
2024-03-02T15:40:22.111Z,12.63
2024-03-02T15:42:48.850Z,12.60
2024-03-02T15:45:15.851Z,11.99
2024-03-02T15:47:43.488Z,11.89
2024-03-02T15:50:10.851Z,11.52
2024-03-02T15:52:37.892Z,12.35
2024-03-02T15:55:07.457Z,11.69
2024-03-02T15:57:35.288Z,11.68
2024-03-02T16:00:02.046Z,11.48
2024-03-02T16:02:28.783Z,11.72
2024-03-02T16:04:55.459Z,11.47
2024-03-02T16:07:22.149Z,11.56
2024-03-02T16:09:48.915Z,11.59
2024-03-02T16:12:16.624Z,11.52
2024-03-02T16:14:43.568Z,11.15
2024-03-02T16:17:10.648Z,11.00
2024-03-02T16:19:40.742Z,11.28
2024-03-02T16:22:09.673Z,11.18
2024-03-02T16:24:36.525Z,10.83
2024-03-02T16:27:03.367Z,11.04
2024-03-02T16:29:30.083Z,10.98
2024-03-02T16:31:56.995Z,11.13
2024-03-02T16:34:23.854Z,10.90
2024-03-02T16:36:50.839Z,11.12
2024-03-02T16:39:17.607Z,11.11
2024-03-02T16:41:48.089Z,11.06
2024-03-02T16:44:15.307Z,11.17
2024-03-02T16:46:42.143Z,11.04
2024-03-02T16:49:09.179Z,11.23
2024-03-02T16:51:43.655Z,11.16
2024-03-02T16:54:10.537Z,11.19
2024-03-02T16:56:43.885Z,11.13
2024-03-02T16:59:11.595Z,11.21
2024-03-02T17:01:39.162Z,11.17
2024-03-02T17:04:08.005Z,11.27
2024-03-02T17:06:35.662Z,11.23
2024-03-02T17:09:03.625Z,10.85
2024-03-02T17:11:31.985Z,11.20
2024-03-02T17:13:59.348Z,11.24
2024-03-02T17:16:26.446Z,11.31
2024-03-02T17:18:53.811Z,11.25
2024-03-02T17:21:21.157Z,11.16
2024-03-02T17:23:48.395Z,11.40
2024-03-02T17:26:15.289Z,11.41
2024-03-02T17:28:43.033Z,11.41
2024-03-02T17:31:10.339Z,11.37
2024-03-02T17:33:37.552Z,10.95
2024-03-02T17:36:05.364Z,11.32
2024-03-02T17:38:32.721Z,11.37
2024-03-02T18:15:21.658Z,13.04
2024-03-02T18:17:48.753Z,12.54
2024-03-02T18:20:15.575Z,12.16
2024-03-02T18:22:42.336Z,11.88
2024-03-02T18:25:10.505Z,9.13
2024-03-02T18:27:37.444Z,11.47
2024-03-02T18:30:06.677Z,11.06
2024-03-02T18:32:34.031Z,11.25
2024-03-02T18:35:00.943Z,11.17
2024-03-02T18:37:27.759Z,10.88
2024-03-02T18:39:55.008Z,10.99
2024-03-02T18:42:21.758Z,10.95
2024-03-02T18:44:51.177Z,10.75
2024-03-02T18:47:18.219Z,10.22
2024-03-02T18:49:47.899Z,10.39
2024-03-02T18:52:14.878Z,10.56
2024-03-02T18:54:42.487Z,10.50
2024-03-02T18:57:10.997Z,10.04
2024-03-02T18:59:38.380Z,9.79
2024-03-02T19:02:05.992Z,10.21
2024-03-02T19:04:32.938Z,10.19
2024-03-02T19:07:00.081Z,10.14
2024-03-02T19:09:26.976Z,9.88
2024-03-02T19:11:54.171Z,10.07
2024-03-02T19:14:21.008Z,9.98
2024-03-02T19:16:47.734Z,9.61
2024-03-02T19:19:14.618Z,9.93
2024-03-02T19:21:41.666Z,9.88
2024-03-02T19:24:08.668Z,9.83
2024-03-02T19:26:35.633Z,9.75
2024-03-02T19:29:02.416Z,9.69
2024-03-02T19:31:29.395Z,9.69
2024-03-02T19:33:57.302Z,9.44
2024-03-02T19:36:24.558Z,9.64
2024-03-02T19:38:51.850Z,9.54
2024-03-02T19:41:21.400Z,9.11
2024-03-02T19:43:48.185Z,9.06
2024-03-02T19:46:16.248Z,9.00
2024-03-02T19:48:43.536Z,9.37
2024-03-02T19:51:10.737Z,9.32
2024-03-02T19:53:39.072Z,9.23
2024-03-02T19:56:06.162Z,8.63
2024-03-02T19:58:34.666Z,8.88
2024-03-02T20:01:01.610Z,8.95
2024-03-02T20:03:28.900Z,8.77
2024-03-02T20:05:55.886Z,8.80
2024-03-02T20:08:22.689Z,8.72
2024-03-02T20:10:49.580Z,8.35
2024-03-02T20:13:19.207Z,8.48
2024-03-02T20:15:46.163Z,8.68
2024-03-02T20:18:13.887Z,8.68
2024-03-02T20:20:41.506Z,8.63
2024-03-02T20:23:08.446Z,8.52
2024-03-02T20:25:35.193Z,8.45
2024-03-02T20:28:01.996Z,8.43
2024-03-02T20:30:28.754Z,8.49
2024-03-02T20:32:55.615Z,8.02
2024-03-02T20:35:22.401Z,8.35
2024-03-02T20:37:49.145Z,7.63
2024-03-02T20:40:20.053Z,8.31
2024-03-02T20:42:47.520Z,8.16
2024-03-02T20:45:17.344Z,8.24
2024-03-02T20:47:45.485Z,8.01
2024-03-02T20:50:12.636Z,8.06
2024-03-02T20:52:39.492Z,7.35
2024-03-02T20:55:07.136Z,7.97
2024-03-02T20:57:33.934Z,7.93
2024-03-02T21:00:00.683Z,7.87
2024-03-02T21:02:27.640Z,7.66
2024-03-02T21:04:54.436Z,7.74
2024-03-02T21:07:23.021Z,7.61
2024-03-02T21:09:49.767Z,7.56
2024-03-02T21:12:16.540Z,7.59
2024-03-02T21:14:43.336Z,7.28
2024-03-02T21:17:10.042Z,7.64
2024-03-02T21:19:37.000Z,7.55
2024-03-02T21:22:07.022Z,7.58
2024-03-02T21:24:34.180Z,7.50
2024-03-02T21:27:01.007Z,7.53
2024-03-02T21:29:27.789Z,7.41
2024-03-02T21:31:56.350Z,7.31
2024-03-02T21:34:23.311Z,7.12
2024-03-02T21:36:50.182Z,7.24
2024-03-02T21:39:17.486Z,7.31
2024-03-02T21:41:45.806Z,7.19
2024-03-02T21:44:12.565Z,7.14
2024-03-02T21:46:39.349Z,7.18
2024-03-02T21:49:06.138Z,7.09
2024-03-02T21:51:32.940Z,6.91
2024-03-02T21:53:59.771Z,6.64
2024-03-02T21:56:26.489Z,6.70
2024-03-02T21:58:53.208Z,6.62
2024-03-02T22:01:20.216Z,7.00
2024-03-02T22:03:47.040Z,6.96
2024-03-02T22:06:14.307Z,6.88
2024-03-02T22:08:41.698Z,6.17
2024-03-02T22:11:08.484Z,6.89
2024-03-02T22:13:37.166Z,7.01
2024-03-02T22:16:04.340Z,6.90
2024-03-02T22:18:31.157Z,6.92
2024-03-02T22:20:57.874Z,6.83
2024-03-02T22:23:24.622Z,6.37
2024-03-02T22:25:51.387Z,6.66
2024-03-02T22:28:18.171Z,6.60
2024-03-02T22:30:44.911Z,6.65
2024-03-02T22:33:11.729Z,6.70
2024-03-02T22:35:38.526Z,6.31
2024-03-02T22:38:05.461Z,6.59
2024-03-02T22:40:32.281Z,6.50
2024-03-02T22:43:00.080Z,6.46
2024-03-02T22:45:26.894Z,6.34
2024-03-02T22:47:55.077Z,6.60
2024-03-02T22:50:21.887Z,6.55
2024-03-02T22:52:48.596Z,6.56
2024-03-02T22:55:15.630Z,6.55
2024-03-02T22:57:42.385Z,6.52
2024-03-02T23:00:21.534Z,6.40
2024-03-02T23:02:48.440Z,6.31
2024-03-02T23:05:15.323Z,6.35
2024-03-02T23:07:42.137Z,6.19
2024-03-02T23:10:09.101Z,5.99
2024-03-02T23:12:35.997Z,5.73
2024-03-02T23:15:02.770Z,6.23
2024-03-02T23:17:29.462Z,6.05
2024-03-02T23:19:56.167Z,6.17
2024-03-02T23:22:23.951Z,5.85
2024-03-02T23:24:50.710Z,5.86
2024-03-02T23:27:17.574Z,3.72
2024-03-02T23:29:44.665Z,5.95
2024-03-02T23:32:12.913Z,5.39
2024-03-02T23:34:39.935Z,5.85
2024-03-02T23:37:07.073Z,5.77
2024-03-02T23:40:07.482Z,5.86
2024-03-02T23:42:34.327Z,5.76
2024-03-02T23:45:02.941Z,5.77
2024-03-02T23:47:29.710Z,5.77
2024-03-02T23:49:56.364Z,5.84
2024-03-02T23:52:23.131Z,5.53
2024-03-02T23:54:50.003Z,5.75
2024-03-02T23:57:16.940Z,5.78
2024-03-02T23:59:43.747Z,5.43
